Flight Track Log - Related Links

Times and Time Zones

All times are in EDT time to prevent confusion due to time zone crossing. See the DAL2191 flight status page for this flight to view local times or setup timezone preferences in your user account.

Time Position Orientation Groundspeed Altitude Reporting Facility
EDT Latitude Longitude Course Direction KTS MPH feet Rate Location/Type
Tue 03:05:40 PM 27.9500 -82.5500 North 186 214 700  Level Tampa TRACON
Tue 03:06:40 PM 27.9000 -82.5667 196° South 204 235 2,400 1,983 Climbing Tampa TRACON
Tue 03:07:41 PM 27.8500 -82.6000 211° Southwest 241 277 4,700 2,333 Climbing Tampa TRACON
Tue 03:08:00 PM 28.2596 -82.6923 334° Northwest  Level FlightAware Approximate
Tue 03:08:46 PM 27.9167 -82.6500 326° Northwest 285 328 7,300  Level Tampa TRACON
Tue 03:09:00 PM 28.3573 -82.7513 327° Northwest  Level FlightAware Approximate
Tue 03:10:00 PM 28.4598 -82.7833 North  Level FlightAware Approximate
Tue 03:11:00 PM 28.5659 -82.8000 North  Level FlightAware Approximate
Tue 03:11:08 PM 28.1019 -82.7044 345° North 318 366 11,000  Level Jacksonville Center
Tue 03:12:08 PM 28.2061 -82.7325 347° North 353 406 12,700 2,000 Climbing Jacksonville Center
Tue 03:13:08 PM 28.3167 -82.7628 346° North 384 442 15,000 2,150 Climbing Jacksonville Center
Tue 03:14:08 PM 28.4294 -82.7933 347° North 402 463 17,000 2,050 Climbing Jacksonville Center
Tue 03:15:08 PM 28.5506 -82.8122 352° North 422 486 19,100 2,000 Climbing Jacksonville Center
Tue 03:16:08 PM 28.6633 -82.8667 337° Northwest 427 491 21,000 1,850 Climbing Jacksonville Center
Tue 03:17:08 PM 28.7697 -82.9281 333° Northwest 427 491 22,800 1,600 Climbing Jacksonville Center
Tue 03:18:08 PM 28.8825 -82.9969 332° Northwest 439 505 24,200 1,300 Climbing Jacksonville Center
Tue 03:19:08 PM 28.9992 -83.0658 333° Northwest 458 527 25,400 1,250 Climbing Jacksonville Center
Tue 03:20:08 PM 29.1117 -83.1422 329° Northwest 463 533 26,700 1,450 Climbing Jacksonville Center
Tue 03:21:08 PM 29.2264 -83.2186 330° Northwest 468 539 28,300 1,550 Climbing Jacksonville Center
Tue 03:22:08 PM 29.3558 -83.2642 343° North 468 539 29,800 1,250 Climbing Jacksonville Center
Tue 03:23:08 PM 29.5019 -83.2719 357° North 468 539 30,800 1,100 Climbing Jacksonville Center
Tue 03:24:08 PM 29.6417 -83.2797 357° North 478 550 32,000 1,350 Climbing Jacksonville Center
Tue 03:25:08 PM 29.7753 -83.2756 North 483 556 33,500 950 Climbing Jacksonville Center
Tue 03:26:08 PM 29.8944 -83.2208 22° Northeast 473 544 33,900 200 Climbing Jacksonville Center
Tue 03:27:08 PM 30.0239 -83.1686 19° North 468 539 33,900  Level Jacksonville Center
Tue 03:28:08 PM 30.1472 -83.1136 21° North 474 545 33,900 50 Level Jacksonville Center
Tue 03:29:08 PM 30.2706 -83.0586 21° North 469 540 34,000 550 Climbing Jacksonville Center
Tue 03:30:08 PM 30.3939 -83.0058 20° North 469 540 35,000 450 Climbing Jacksonville Center
Tue 03:31:08 PM 30.5169 -82.9553 19° North 469 540 34,900 -50 Descending Jacksonville Center
Tue 03:32:08 PM 30.6236 -82.9069 21° North 462 532 34,900  Level Jacksonville Center
Tue 03:33:08 PM 30.7425 -82.8564 20° North 462 532 34,900  Level Jacksonville Center
Tue 03:34:08 PM 30.8658 -82.8031 20° North 462 532 34,900 50 Level Jacksonville Center
Tue 03:35:08 PM 30.9889 -82.7519 20° North 462 532 35,000 50 Climbing Jacksonville Center
Tue 03:36:08 PM 31.1203 -82.6911 22° Northeast 462 532 35,000  Level Jacksonville Center
Tue 03:37:08 PM 31.2183 -82.6447 22° Northeast 462 532 35,000  Level Jacksonville Center
Tue 03:38:08 PM 31.3622 -82.5811 21° North 462 532 35,000 -50 Level Jacksonville Center
Tue 03:39:08 PM 31.4833 -82.5294 20° North 468 539 34,900 -500 Descending Jacksonville Center
Tue 03:40:08 PM 31.6064 -82.5267 North 441 507 34,000 -800 Descending Jacksonville Center
Tue 03:41:08 PM 31.7278 -82.5678 344° North 437 503 33,300 -385 Descending Jacksonville Center
Tue 03:42:44 PM 31.9200 -82.6294 345° North 450 518 33,000 -115 Descending Atlanta Center
Tue 03:43:44 PM 32.0417 -82.6667 345° North 450 518 33,000 -350 Level Atlanta Center
Tue 03:44:44 PM 32.1611 -82.7042 345° North 450 518 32,300 -850 Descending Atlanta Center
Tue 03:45:44 PM 32.2722 -82.7714 333° Northwest 450 518 31,300 -950 Descending Atlanta Center
Tue 03:46:44 PM 32.3672 -82.8683 319° Northwest 440 506 30,400 -950 Descending Atlanta Center
Tue 03:47:44 PM 32.4600 -82.9631 319° Northwest 440 506 29,400 -1,050 Descending Atlanta Center
Tue 03:48:44 PM 32.5483 -83.0556 319° Northwest 435 501 28,300 -1,500 Descending Atlanta Center
Tue 03:49:44 PM 32.6389 -83.1508 318° Northwest 430 495 26,400 -2,050 Descending Atlanta Center
Tue 03:50:44 PM 32.7272 -83.2389 320° Northwest 425 489 24,200 -2,150 Descending Atlanta Center
Tue 03:51:44 PM 32.8111 -83.3269 319° Northwest 414 476 22,100 -1,850 Descending Atlanta Center
Tue 03:52:44 PM 32.8908 -83.4106 319° Northwest 400 460 20,500 -1,500 Descending Atlanta Center
Tue 03:53:44 PM 32.9664 -83.4892 319° Northwest 387 445 19,100 -1,250 Descending Atlanta Center
Tue 03:54:44 PM 33.0294 -83.5681 314° West 349 402 18,000 -1,300 Descending Atlanta Center
Tue 03:55:44 PM 33.0778 -83.6497 305° West 328 377 16,500 -2,105 Descending Atlanta Center
Tue 03:56:38 PM 33.1333 -83.7167 315° West 320 368 14,000 -2,368 Descending Atlanta TRACON
Tue 03:57:38 PM 33.2000 -83.7833 320° Northwest 327 376 12,000 -1,000 Descending Atlanta TRACON
Tue 03:58:38 PM 33.2500 -83.8500 312° West 273 314 12,000 -333 Level Atlanta TRACON
Tue 03:59:44 PM 33.3167 -83.9000 328° Northwest 247 284 11,300 -905 Descending Atlanta TRACON
Tue 04:00:44 PM 33.3747 -83.9344 334° Northwest 234 269 10,100 -1,250 Descending Atlanta Center
Tue 04:01:44 PM 33.4331 -83.9667 335° Northwest 234 269 8,800 -1,400 Descending Atlanta Center
Tue 04:02:44 PM 33.4853 -84.0064 328° Northwest 229 264 7,300 -1,450 Descending Atlanta Center
Tue 04:03:44 PM 33.5356 -84.0489 325° Northwest 224 258 5,900 -1,345 Descending Atlanta Center
Tue 04:05:38 PM 33.6000 -84.1667 303° West 213 245 3,400 -1,000 Descending Atlanta TRACON
Tue 04:06:38 PM 33.6167 -84.2167 292° West 188 216 3,000 -400 Descending Atlanta TRACON

Login

Don't have an account? Register now (free) for customized features, flight alerts, and more!